sensor_id;sensor_type;location;lat;lon;timestamp;P1;durP1;ratioP1;P2;durP2;ratioP2
7025;SDS011;3554;42.132;24.786;2023-03-23T00:00:52;30.83;;;17.50;;
7025;SDS011;3554;42.132;24.786;2023-03-23T00:03:20;21.40;;;17.33;;
7025;SDS011;3554;42.132;24.786;2023-03-23T00:05:47;26.30;;;18.13;;
7025;SDS011;3554;42.132;24.786;2023-03-23T00:08:18;24.17;;;17.17;;
7025;SDS011;3554;42.132;24.786;2023-03-23T00:10:50;25.97;;;19.27;;
7025;SDS011;3554;42.132;24.786;2023-03-23T00:13:17;26.27;;;17.43;;
7025;SDS011;3554;42.132;24.786;2023-03-23T00:15:45;32.07;;;19.10;;
7025;SDS011;3554;42.132;24.786;2023-03-23T00:18:14;25.53;;;18.37;;
7025;SDS011;3554;42.132;24.786;2023-03-23T00:20:46;25.40;;;18.77;;
7025;SDS011;3554;42.132;24.786;2023-03-23T00:23:14;21.77;;;17.20;;
7025;SDS011;3554;42.132;24.786;2023-03-23T00:25:45;25.77;;;20.40;;
7025;SDS011;3554;42.132;24.786;2023-03-23T00:28:14;24.63;;;19.20;;
7025;SDS011;3554;42.132;24.786;2023-03-23T00:30:41;28.17;;;20.00;;
7025;SDS011;3554;42.132;24.786;2023-03-23T00:33:10;23.77;;;19.83;;
7025;SDS011;3554;42.132;24.786;2023-03-23T00:35:39;23.03;;;19.67;;
7025;SDS011;3554;42.132;24.786;2023-03-23T00:38:06;31.93;;;20.13;;
7025;SDS011;3554;42.132;24.786;2023-03-23T00:40:34;27.80;;;20.53;;
7025;SDS011;3554;42.132;24.786;2023-03-23T00:43:03;25.63;;;20.10;;
7025;SDS011;3554;42.132;24.786;2023-03-23T00:45:30;27.87;;;20.20;;
7025;SDS011;3554;42.132;24.786;2023-03-23T00:48:00;29.57;;;19.90;;
7025;SDS011;3554;42.132;24.786;2023-03-23T00:50:29;25.73;;;21.00;;
7025;SDS011;3554;42.132;24.786;2023-03-23T00:52:56;23.50;;;19.87;;
7025;SDS011;3554;42.132;24.786;2023-03-23T00:55:23;32.33;;;20.67;;
7025;SDS011;3554;42.132;24.786;2023-03-23T00:57:50;26.43;;;20.17;;
7025;SDS011;3554;42.132;24.786;2023-03-23T01:00:20;25.93;;;19.37;;
7025;SDS011;3554;42.132;24.786;2023-03-23T01:02:47;25.23;;;20.43;;
7025;SDS011;3554;42.132;24.786;2023-03-23T01:05:16;28.20;;;20.50;;
7025;SDS011;3554;42.132;24.786;2023-03-23T01:07:43;30.20;;;19.83;;
7025;SDS011;3554;42.132;24.786;2023-03-23T01:10:10;25.43;;;20.43;;
7025;SDS011;3554;42.132;24.786;2023-03-23T01:12:41;28.17;;;20.50;;
7025;SDS011;3554;42.132;24.786;2023-03-23T01:15:10;25.03;;;20.20;;
7025;SDS011;3554;42.132;24.786;2023-03-23T01:17:43;32.37;;;21.27;;
7025;SDS011;3554;42.132;24.786;2023-03-23T01:20:10;30.30;;;21.57;;
7025;SDS011;3554;42.132;24.786;2023-03-23T01:22:37;30.97;;;21.17;;
7025;SDS011;3554;42.132;24.786;2023-03-23T01:25:04;27.70;;;21.90;;
7025;SDS011;3554;42.132;24.786;2023-03-23T01:27:32;27.53;;;21.23;;
7025;SDS011;3554;42.132;24.786;2023-03-23T01:29:59;32.27;;;22.67;;
7025;SDS011;3554;42.132;24.786;2023-03-23T01:32:26;30.90;;;22.77;;
7025;SDS011;3554;42.132;24.786;2023-03-23T01:34:54;29.20;;;21.83;;
7025;SDS011;3554;42.132;24.786;2023-03-23T01:37:21;31.37;;;21.63;;
7025;SDS011;3554;42.132;24.786;2023-03-23T01:39:51;33.43;;;22.03;;
7025;SDS011;3554;42.132;24.786;2023-03-23T01:42:20;26.00;;;22.07;;
7025;SDS011;3554;42.132;24.786;2023-03-23T01:47:52;26.63;;;20.73;;
7025;SDS011;3554;42.132;24.786;2023-03-23T01:50:23;32.57;;;20.47;;
7025;SDS011;3554;42.132;24.786;2023-03-23T01:52:53;26.80;;;20.70;;
7025;SDS011;3554;42.132;24.786;2023-03-23T01:55:21;26.37;;;19.67;;
7025;SDS011;3554;42.132;24.786;2023-03-23T01:57:50;25.80;;;20.00;;
7025;SDS011;3554;42.132;24.786;2023-03-23T02:00:17;28.67;;;21.67;;
7025;SDS011;3554;42.132;24.786;2023-03-23T02:02:45;30.13;;;22.37;;
7025;SDS011;3554;42.132;24.786;2023-03-23T02:05:15;31.77;;;22.67;;
7025;SDS011;3554;42.132;24.786;2023-03-23T02:07:48;34.40;;;22.97;;
7025;SDS011;3554;42.132;24.786;2023-03-23T02:10:16;29.40;;;22.30;;
7025;SDS011;3554;42.132;24.786;2023-03-23T02:12:43;31.30;;;21.97;;
7025;SDS011;3554;42.132;24.786;2023-03-23T02:15:10;32.07;;;22.40;;
7025;SDS011;3554;42.132;24.786;2023-03-23T02:17:38;30.83;;;22.20;;
7025;SDS011;3554;42.132;24.786;2023-03-23T02:20:18;29.60;;;22.17;;
7025;SDS011;3554;42.132;24.786;2023-03-23T02:23:10;28.53;;;20.50;;
7025;SDS011;3554;42.132;24.786;2023-03-23T02:25:52;28.37;;;22.00;;
7025;SDS011;3554;42.132;24.786;2023-03-23T02:31:27;33.93;;;21.90;;
7025;SDS011;3554;42.132;24.786;2023-03-23T02:34:14;32.53;;;21.23;;
7025;SDS011;3554;42.132;24.786;2023-03-23T02:36:45;27.87;;;20.53;;
7025;SDS011;3554;42.132;24.786;2023-03-23T02:39:17;28.70;;;21.83;;
7025;SDS011;3554;42.132;24.786;2023-03-23T02:41:51;27.73;;;19.93;;
7025;SDS011;3554;42.132;24.786;2023-03-23T02:44:21;25.03;;;19.70;;
7025;SDS011;3554;42.132;24.786;2023-03-23T02:46:49;26.17;;;20.13;;
7025;SDS011;3554;42.132;24.786;2023-03-23T02:49:20;28.43;;;21.17;;
7025;SDS011;3554;42.132;24.786;2023-03-23T02:51:51;34.07;;;21.97;;
7025;SDS011;3554;42.132;24.786;2023-03-23T02:54:19;26.63;;;19.53;;
7025;SDS011;3554;42.132;24.786;2023-03-23T02:56:50;33.77;;;21.60;;
7025;SDS011;3554;42.132;24.786;2023-03-23T02:59:19;27.53;;;21.07;;
7025;SDS011;3554;42.132;24.786;2023-03-23T03:01:50;31.23;;;21.03;;
7025;SDS011;3554;42.132;24.786;2023-03-23T03:04:30;25.60;;;20.17;;
7025;SDS011;3554;42.132;24.786;2023-03-23T03:07:07;27.43;;;21.17;;
7025;SDS011;3554;42.132;24.786;2023-03-23T03:09:55;28.60;;;21.97;;
7025;SDS011;3554;42.132;24.786;2023-03-23T03:12:27;35.73;;;23.47;;
7025;SDS011;3554;42.132;24.786;2023-03-23T03:15:06;35.87;;;23.87;;
7025;SDS011;3554;42.132;24.786;2023-03-23T03:17:40;38.83;;;23.60;;
7025;SDS011;3554;42.132;24.786;2023-03-23T03:20:12;35.03;;;23.07;;
7025;SDS011;3554;42.132;24.786;2023-03-23T03:22:41;34.83;;;23.30;;
7025;SDS011;3554;42.132;24.786;2023-03-23T03:25:11;40.97;;;25.47;;
7025;SDS011;3554;42.132;24.786;2023-03-23T03:27:40;45.60;;;25.47;;
7025;SDS011;3554;42.132;24.786;2023-03-23T03:30:11;43.07;;;24.77;;
7025;SDS011;3554;42.132;24.786;2023-03-23T03:32:43;42.97;;;23.70;;
7025;SDS011;3554;42.132;24.786;2023-03-23T03:35:15;37.57;;;23.00;;
7025;SDS011;3554;42.132;24.786;2023-03-23T03:37:42;40.70;;;23.60;;
7025;SDS011;3554;42.132;24.786;2023-03-23T03:40:11;40.60;;;23.03;;
7025;SDS011;3554;42.132;24.786;2023-03-23T03:42:40;42.90;;;24.60;;
7025;SDS011;3554;42.132;24.786;2023-03-23T03:45:08;41.97;;;25.07;;
7025;SDS011;3554;42.132;24.786;2023-03-23T03:47:38;43.03;;;25.23;;
7025;SDS011;3554;42.132;24.786;2023-03-23T03:50:05;39.40;;;23.77;;
7025;SDS011;3554;42.132;24.786;2023-03-23T03:52:34;42.37;;;24.80;;
7025;SDS011;3554;42.132;24.786;2023-03-23T03:55:03;42.70;;;25.67;;
7025;SDS011;3554;42.132;24.786;2023-03-23T03:57:32;43.63;;;25.77;;
7025;SDS011;3554;42.132;24.786;2023-03-23T03:59:59;41.00;;;25.97;;
7025;SDS011;3554;42.132;24.786;2023-03-23T04:02:25;43.37;;;26.93;;
7025;SDS011;3554;42.132;24.786;2023-03-23T04:04:52;44.73;;;26.50;;
7025;SDS011;3554;42.132;24.786;2023-03-23T04:07:19;36.80;;;24.33;;
7025;SDS011;3554;42.132;24.786;2023-03-23T04:09:48;37.97;;;25.07;;
7025;SDS011;3554;42.132;24.786;2023-03-23T04:12:15;38.80;;;26.03;;
7025;SDS011;3554;42.132;24.786;2023-03-23T04:14:42;36.37;;;23.20;;
7025;SDS011;3554;42.132;24.786;2023-03-23T04:17:09;36.00;;;23.70;;
7025;SDS011;3554;42.132;24.786;2023-03-23T04:19:36;37.93;;;23.23;;
7025;SDS011;3554;42.132;24.786;2023-03-23T04:22:03;33.37;;;23.23;;
7025;SDS011;3554;42.132;24.786;2023-03-23T04:24:31;31.17;;;22.47;;
7025;SDS011;3554;42.132;24.786;2023-03-23T04:26:59;33.53;;;20.70;;
7025;SDS011;3554;42.132;24.786;2023-03-23T04:29:26;30.30;;;21.33;;
7025;SDS011;3554;42.132;24.786;2023-03-23T04:31:53;33.17;;;22.03;;
7025;SDS011;3554;42.132;24.786;2023-03-23T04:34:21;33.90;;;22.97;;
7025;SDS011;3554;42.132;24.786;2023-03-23T04:36:48;33.67;;;23.00;;
7025;SDS011;3554;42.132;24.786;2023-03-23T04:39:15;35.27;;;22.83;;
7025;SDS011;3554;42.132;24.786;2023-03-23T04:41:42;34.70;;;22.20;;
7025;SDS011;3554;42.132;24.786;2023-03-23T04:44:12;31.30;;;21.00;;
7025;SDS011;3554;42.132;24.786;2023-03-23T04:46:42;28.73;;;20.53;;
7025;SDS011;3554;42.132;24.786;2023-03-23T04:49:14;32.33;;;21.43;;
7025;SDS011;3554;42.132;24.786;2023-03-23T04:51:46;35.33;;;23.37;;
7025;SDS011;3554;42.132;24.786;2023-03-23T04:54:13;33.60;;;22.50;;
7025;SDS011;3554;42.132;24.786;2023-03-23T04:56:40;33.90;;;22.13;;
7025;SDS011;3554;42.132;24.786;2023-03-23T04:59:07;36.10;;;22.77;;
7025;SDS011;3554;42.132;24.786;2023-03-23T05:01:35;36.13;;;23.67;;
7025;SDS011;3554;42.132;24.786;2023-03-23T05:04:03;37.00;;;24.27;;
7025;SDS011;3554;42.132;24.786;2023-03-23T05:06:30;37.47;;;24.03;;
7025;SDS011;3554;42.132;24.786;2023-03-23T05:08:57;38.63;;;24.03;;
7025;SDS011;3554;42.132;24.786;2023-03-23T05:11:24;38.83;;;24.50;;
7025;SDS011;3554;42.132;24.786;2023-03-23T05:13:51;38.57;;;24.77;;
7025;SDS011;3554;42.132;24.786;2023-03-23T05:16:18;35.63;;;22.60;;
7025;SDS011;3554;42.132;24.786;2023-03-23T05:18:46;27.87;;;20.40;;
7025;SDS011;3554;42.132;24.786;2023-03-23T05:21:13;34.67;;;21.77;;
7025;SDS011;3554;42.132;24.786;2023-03-23T05:23:40;33.43;;;22.00;;
7025;SDS011;3554;42.132;24.786;2023-03-23T05:26:07;35.10;;;22.43;;
7025;SDS011;3554;42.132;24.786;2023-03-23T05:28:34;35.47;;;23.40;;
7025;SDS011;3554;42.132;24.786;2023-03-23T05:31:01;31.83;;;21.07;;
7025;SDS011;3554;42.132;24.786;2023-03-23T05:33:28;38.10;;;23.90;;
7025;SDS011;3554;42.132;24.786;2023-03-23T05:35:56;36.77;;;22.63;;
7025;SDS011;3554;42.132;24.786;2023-03-23T05:38:23;38.83;;;22.87;;
7025;SDS011;3554;42.132;24.786;2023-03-23T05:40:50;37.40;;;22.60;;
7025;SDS011;3554;42.132;24.786;2023-03-23T05:43:17;40.63;;;25.43;;
7025;SDS011;3554;42.132;24.786;2023-03-23T05:45:44;45.97;;;25.47;;
7025;SDS011;3554;42.132;24.786;2023-03-23T05:48:11;35.53;;;24.03;;
7025;SDS011;3554;42.132;24.786;2023-03-23T05:50:37;31.13;;;22.37;;
7025;SDS011;3554;42.132;24.786;2023-03-23T05:53:06;33.93;;;23.27;;
7025;SDS011;3554;42.132;24.786;2023-03-23T05:55:32;37.60;;;26.00;;
7025;SDS011;3554;42.132;24.786;2023-03-23T05:57:59;41.90;;;25.27;;
7025;SDS011;3554;42.132;24.786;2023-03-23T06:00:26;34.00;;;24.07;;
7025;SDS011;3554;42.132;24.786;2023-03-23T06:02:55;37.43;;;25.03;;
7025;SDS011;3554;42.132;24.786;2023-03-23T06:05:23;39.47;;;25.27;;
7025;SDS011;3554;42.132;24.786;2023-03-23T06:07:50;34.50;;;24.33;;
7025;SDS011;3554;42.132;24.786;2023-03-23T06:10:19;41.43;;;25.90;;
7025;SDS011;3554;42.132;24.786;2023-03-23T06:12:46;39.17;;;27.07;;
7025;SDS011;3554;42.132;24.786;2023-03-23T06:15:14;38.73;;;25.40;;
7025;SDS011;3554;42.132;24.786;2023-03-23T06:17:41;41.90;;;27.00;;
7025;SDS011;3554;42.132;24.786;2023-03-23T06:20:08;46.17;;;27.70;;
7025;SDS011;3554;42.132;24.786;2023-03-23T06:22:36;41.67;;;29.47;;
7025;SDS011;3554;42.132;24.786;2023-03-23T06:25:04;43.93;;;29.03;;
7025;SDS011;3554;42.132;24.786;2023-03-23T06:27:33;48.07;;;30.50;;
7025;SDS011;3554;42.132;24.786;2023-03-23T06:30:01;43.10;;;29.17;;
7025;SDS011;3554;42.132;24.786;2023-03-23T06:32:29;35.87;;;25.83;;
7025;SDS011;3554;42.132;24.786;2023-03-23T06:34:57;39.33;;;26.27;;
7025;SDS011;3554;42.132;24.786;2023-03-23T06:37:25;34.27;;;24.03;;
7025;SDS011;3554;42.132;24.786;2023-03-23T06:39:52;35.47;;;24.10;;
7025;SDS011;3554;42.132;24.786;2023-03-23T06:42:19;39.27;;;24.97;;
7025;SDS011;3554;42.132;24.786;2023-03-23T06:44:47;36.33;;;24.47;;
7025;SDS011;3554;42.132;24.786;2023-03-23T06:47:14;40.33;;;24.20;;
7025;SDS011;3554;42.132;24.786;2023-03-23T06:49:41;32.10;;;23.27;;
7025;SDS011;3554;42.132;24.786;2023-03-23T06:52:07;37.40;;;24.53;;
7025;SDS011;3554;42.132;24.786;2023-03-23T06:54:34;36.93;;;24.80;;
7025;SDS011;3554;42.132;24.786;2023-03-23T06:57:01;34.37;;;24.50;;
7025;SDS011;3554;42.132;24.786;2023-03-23T06:59:28;31.57;;;22.87;;
7025;SDS011;3554;42.132;24.786;2023-03-23T07:01:57;33.00;;;22.87;;
7025;SDS011;3554;42.132;24.786;2023-03-23T07:04:24;36.73;;;24.63;;
7025;SDS011;3554;42.132;24.786;2023-03-23T07:06:50;36.07;;;22.73;;
7025;SDS011;3554;42.132;24.786;2023-03-23T07:09:17;30.90;;;20.77;;
7025;SDS011;3554;42.132;24.786;2023-03-23T07:11:44;40.17;;;22.70;;
7025;SDS011;3554;42.132;24.786;2023-03-23T07:14:12;36.03;;;23.00;;
7025;SDS011;3554;42.132;24.786;2023-03-23T07:16:40;30.13;;;21.40;;
7025;SDS011;3554;42.132;24.786;2023-03-23T07:19:08;34.97;;;22.00;;
7025;SDS011;3554;42.132;24.786;2023-03-23T07:21:35;35.40;;;22.80;;
7025;SDS011;3554;42.132;24.786;2023-03-23T07:24:03;33.60;;;22.23;;
7025;SDS011;3554;42.132;24.786;2023-03-23T07:26:30;31.40;;;22.77;;
7025;SDS011;3554;42.132;24.786;2023-03-23T07:28:56;32.40;;;20.53;;
7025;SDS011;3554;42.132;24.786;2023-03-23T07:31:23;36.43;;;21.57;;
7025;SDS011;3554;42.132;24.786;2023-03-23T07:33:50;34.50;;;20.30;;
7025;SDS011;3554;42.132;24.786;2023-03-23T07:36:18;34.80;;;21.10;;
7025;SDS011;3554;42.132;24.786;2023-03-23T07:38:45;29.77;;;20.27;;
7025;SDS011;3554;42.132;24.786;2023-03-23T07:41:13;33.83;;;20.37;;
7025;SDS011;3554;42.132;24.786;2023-03-23T07:43:40;34.43;;;22.00;;
7025;SDS011;3554;42.132;24.786;2023-03-23T07:46:07;28.73;;;21.90;;
7025;SDS011;3554;42.132;24.786;2023-03-23T07:48:34;37.63;;;21.27;;
7025;SDS011;3554;42.132;24.786;2023-03-23T07:51:01;31.40;;;20.43;;
7025;SDS011;3554;42.132;24.786;2023-03-23T07:53:29;30.37;;;20.10;;
7025;SDS011;3554;42.132;24.786;2023-03-23T07:55:56;30.40;;;20.50;;
7025;SDS011;3554;42.132;24.786;2023-03-23T07:58:23;28.80;;;19.87;;
7025;SDS011;3554;42.132;24.786;2023-03-23T08:00:51;28.80;;;20.43;;
7025;SDS011;3554;42.132;24.786;2023-03-23T08:03:19;23.93;;;19.43;;
7025;SDS011;3554;42.132;24.786;2023-03-23T08:05:46;28.50;;;21.33;;
7025;SDS011;3554;42.132;24.786;2023-03-23T08:08:12;28.17;;;21.63;;
7025;SDS011;3554;42.132;24.786;2023-03-23T08:10:41;33.37;;;20.90;;
7025;SDS011;3554;42.132;24.786;2023-03-23T08:13:08;29.83;;;20.37;;
7025;SDS011;3554;42.132;24.786;2023-03-23T08:15:35;32.90;;;21.57;;
7025;SDS011;3554;42.132;24.786;2023-03-23T08:18:03;27.77;;;21.07;;
7025;SDS011;3554;42.132;24.786;2023-03-23T08:20:30;30.57;;;22.77;;
7025;SDS011;3554;42.132;24.786;2023-03-23T08:22:58;36.30;;;24.33;;
7025;SDS011;3554;42.132;24.786;2023-03-23T08:25:25;34.33;;;21.87;;
7025;SDS011;3554;42.132;24.786;2023-03-23T08:27:53;32.57;;;22.70;;
7025;SDS011;3554;42.132;24.786;2023-03-23T08:30:21;34.93;;;22.47;;
7025;SDS011;3554;42.132;24.786;2023-03-23T08:32:49;31.23;;;23.17;;
7025;SDS011;3554;42.132;24.786;2023-03-23T08:35:17;36.43;;;23.47;;
7025;SDS011;3554;42.132;24.786;2023-03-23T08:37:45;34.17;;;23.50;;
7025;SDS011;3554;42.132;24.786;2023-03-23T08:40:16;34.57;;;23.37;;
7025;SDS011;3554;42.132;24.786;2023-03-23T08:42:45;39.53;;;23.57;;
7025;SDS011;3554;42.132;24.786;2023-03-23T08:45:15;33.00;;;23.47;;
7025;SDS011;3554;42.132;24.786;2023-03-23T08:47:43;32.13;;;23.17;;
7025;SDS011;3554;42.132;24.786;2023-03-23T08:50:12;29.60;;;21.30;;
7025;SDS011;3554;42.132;24.786;2023-03-23T08:52:40;30.33;;;21.87;;
7025;SDS011;3554;42.132;24.786;2023-03-23T08:55:09;34.60;;;22.93;;
7025;SDS011;3554;42.132;24.786;2023-03-23T08:57:36;34.10;;;22.17;;
7025;SDS011;3554;42.132;24.786;2023-03-23T09:00:04;30.00;;;21.53;;
7025;SDS011;3554;42.132;24.786;2023-03-23T09:02:41;30.80;;;20.83;;
7025;SDS011;3554;42.132;24.786;2023-03-23T09:05:09;31.30;;;20.43;;
7025;SDS011;3554;42.132;24.786;2023-03-23T09:07:36;26.90;;;18.70;;
7025;SDS011;3554;42.132;24.786;2023-03-23T09:10:04;31.27;;;18.63;;
7025;SDS011;3554;42.132;24.786;2023-03-23T09:12:32;25.53;;;18.43;;
7025;SDS011;3554;42.132;24.786;2023-03-23T09:14:58;30.67;;;19.33;;
7025;SDS011;3554;42.132;24.786;2023-03-23T09:17:28;25.30;;;18.83;;
7025;SDS011;3554;42.132;24.786;2023-03-23T09:19:56;27.37;;;20.03;;
7025;SDS011;3554;42.132;24.786;2023-03-23T09:22:24;28.33;;;19.83;;
7025;SDS011;3554;42.132;24.786;2023-03-23T09:24:50;26.03;;;20.67;;
7025;SDS011;3554;42.132;24.786;2023-03-23T09:27:17;24.97;;;19.40;;
7025;SDS011;3554;42.132;24.786;2023-03-23T09:29:44;25.00;;;18.27;;
7025;SDS011;3554;42.132;24.786;2023-03-23T09:32:13;27.37;;;19.37;;
7025;SDS011;3554;42.132;24.786;2023-03-23T09:34:40;22.67;;;17.73;;
7025;SDS011;3554;42.132;24.786;2023-03-23T09:37:09;21.03;;;16.97;;
7025;SDS011;3554;42.132;24.786;2023-03-23T09:39:38;19.63;;;16.47;;
7025;SDS011;3554;42.132;24.786;2023-03-23T09:45:06;19.27;;;15.73;;
7025;SDS011;3554;42.132;24.786;2023-03-23T09:47:43;15.40;;;13.80;;
7025;SDS011;3554;42.132;24.786;2023-03-23T09:50:20;17.93;;;13.97;;
7025;SDS011;3554;42.132;24.786;2023-03-23T09:52:53;17.97;;;14.83;;
7025;SDS011;3554;42.132;24.786;2023-03-23T09:55:23;16.70;;;13.53;;
7025;SDS011;3554;42.132;24.786;2023-03-23T09:57:52;20.77;;;15.63;;
7025;SDS011;3554;42.132;24.786;2023-03-23T10:00:26;19.97;;;15.60;;
7025;SDS011;3554;42.132;24.786;2023-03-23T10:03:00;17.17;;;14.77;;
7025;SDS011;3554;42.132;24.786;2023-03-23T10:05:32;15.50;;;14.03;;
7025;SDS011;3554;42.132;24.786;2023-03-23T10:08:05;15.43;;;13.93;;
7025;SDS011;3554;42.132;24.786;2023-03-23T10:10:41;14.43;;;12.90;;
7025;SDS011;3554;42.132;24.786;2023-03-23T10:13:18;16.50;;;13.33;;
7025;SDS011;3554;42.132;24.786;2023-03-23T10:15:50;15.30;;;13.43;;
7025;SDS011;3554;42.132;24.786;2023-03-23T10:18:20;15.53;;;13.87;;
7025;SDS011;3554;42.132;24.786;2023-03-23T10:20:53;16.40;;;12.87;;
7025;SDS011;3554;42.132;24.786;2023-03-23T10:23:36;13.37;;;12.17;;
7025;SDS011;3554;42.132;24.786;2023-03-23T10:26:19;13.73;;;11.33;;
7025;SDS011;3554;42.132;24.786;2023-03-23T10:28:52;15.00;;;11.57;;
7025;SDS011;3554;42.132;24.786;2023-03-23T10:31:24;13.00;;;11.43;;
7025;SDS011;3554;42.132;24.786;2023-03-23T10:33:57;10.30;;;8.37;;
7025;SDS011;3554;42.132;24.786;2023-03-23T10:36:28;8.93;;;8.13;;
7025;SDS011;3554;42.132;24.786;2023-03-23T10:39:02;7.90;;;7.33;;
7025;SDS011;3554;42.132;24.786;2023-03-23T10:41:36;8.80;;;7.93;;
7025;SDS011;3554;42.132;24.786;2023-03-23T10:44:07;8.97;;;8.07;;
7025;SDS011;3554;42.132;24.786;2023-03-23T10:46:38;9.67;;;8.07;;
7025;SDS011;3554;42.132;24.786;2023-03-23T10:49:14;8.73;;;8.13;;
7025;SDS011;3554;42.132;24.786;2023-03-23T10:51:51;7.70;;;7.17;;
7025;SDS011;3554;42.132;24.786;2023-03-23T10:54:27;8.10;;;7.50;;
7025;SDS011;3554;42.132;24.786;2023-03-23T10:57:01;8.53;;;7.73;;
7025;SDS011;3554;42.132;24.786;2023-03-23T10:59:40;6.60;;;6.03;;
7025;SDS011;3554;42.132;24.786;2023-03-23T11:02:10;5.47;;;5.17;;
7025;SDS011;3554;42.132;24.786;2023-03-23T11:04:45;5.43;;;5.13;;
7025;SDS011;3554;42.132;24.786;2023-03-23T11:07:18;6.33;;;5.93;;
7025;SDS011;3554;42.132;24.786;2023-03-23T11:09:55;6.40;;;4.80;;
7025;SDS011;3554;42.132;24.786;2023-03-23T11:12:23;4.47;;;4.17;;
7025;SDS011;3554;42.132;24.786;2023-03-23T11:14:51;5.30;;;4.77;;
7025;SDS011;3554;42.132;24.786;2023-03-23T11:17:22;4.90;;;4.60;;
7025;SDS011;3554;42.132;24.786;2023-03-23T11:19:51;4.73;;;4.53;;
7025;SDS011;3554;42.132;24.786;2023-03-23T11:22:23;4.60;;;4.33;;
7025;SDS011;3554;42.132;24.786;2023-03-23T11:24:52;5.03;;;4.73;;
7025;SDS011;3554;42.132;24.786;2023-03-23T11:27:22;5.13;;;4.80;;
7025;SDS011;3554;42.132;24.786;2023-03-23T11:29:50;5.23;;;4.93;;
7025;SDS011;3554;42.132;24.786;2023-03-23T11:32:21;5.57;;;5.07;;
7025;SDS011;3554;42.132;24.786;2023-03-23T11:34:53;5.93;;;5.53;;
7025;SDS011;3554;42.132;24.786;2023-03-23T11:37:24;7.50;;;6.90;;
7025;SDS011;3554;42.132;24.786;2023-03-23T11:39:56;6.40;;;5.80;;
7025;SDS011;3554;42.132;24.786;2023-03-23T11:42:25;6.27;;;5.97;;
7025;SDS011;3554;42.132;24.786;2023-03-23T11:44:53;7.03;;;6.53;;
7025;SDS011;3554;42.132;24.786;2023-03-23T11:47:23;6.63;;;6.13;;
7025;SDS011;3554;42.132;24.786;2023-03-23T11:50:02;9.77;;;8.87;;
7025;SDS011;3554;42.132;24.786;2023-03-23T11:52:39;9.00;;;8.30;;
7025;SDS011;3554;42.132;24.786;2023-03-23T11:55:13;9.60;;;8.90;;
7025;SDS011;3554;42.132;24.786;2023-03-23T11:57:45;9.87;;;8.97;;
7025;SDS011;3554;42.132;24.786;2023-03-23T12:00:14;8.43;;;7.83;;
7025;SDS011;3554;42.132;24.786;2023-03-23T12:02:45;9.93;;;9.00;;
7025;SDS011;3554;42.132;24.786;2023-03-23T12:05:35;9.00;;;8.40;;
7025;SDS011;3554;42.132;24.786;2023-03-23T12:08:14;7.63;;;7.03;;
7025;SDS011;3554;42.132;24.786;2023-03-23T12:10:53;8.40;;;7.70;;
7025;SDS011;3554;42.132;24.786;2023-03-23T12:13:30;8.03;;;7.40;;
7025;SDS011;3554;42.132;24.786;2023-03-23T12:16:19;6.63;;;6.33;;
7025;SDS011;3554;42.132;24.786;2023-03-23T12:18:56;8.67;;;7.13;;
7025;SDS011;3554;42.132;24.786;2023-03-23T12:21:31;7.53;;;6.93;;
7025;SDS011;3554;42.132;24.786;2023-03-23T12:24:08;7.30;;;6.70;;
7025;SDS011;3554;42.132;24.786;2023-03-23T12:26:45;6.57;;;6.17;;
7025;SDS011;3554;42.132;24.786;2023-03-23T12:29:31;6.50;;;6.00;;
7025;SDS011;3554;42.132;24.786;2023-03-23T12:32:21;5.70;;;5.40;;
7025;SDS011;3554;42.132;24.786;2023-03-23T12:34:54;5.10;;;4.80;;
7025;SDS011;3554;42.132;24.786;2023-03-23T12:37:33;5.10;;;4.63;;
7025;SDS011;3554;42.132;24.786;2023-03-23T12:40:15;5.53;;;5.13;;
7025;SDS011;3554;42.132;24.786;2023-03-23T12:42:54;5.73;;;5.00;;
7025;SDS011;3554;42.132;24.786;2023-03-23T12:45:37;5.67;;;5.27;;
7025;SDS011;3554;42.132;24.786;2023-03-23T12:48:20;5.30;;;5.00;;
7025;SDS011;3554;42.132;24.786;2023-03-23T12:51:01;5.17;;;4.80;;
7025;SDS011;3554;42.132;24.786;2023-03-23T12:53:38;5.70;;;5.40;;
7025;SDS011;3554;42.132;24.786;2023-03-23T12:56:14;5.00;;;4.70;;
7025;SDS011;3554;42.132;24.786;2023-03-23T12:58:47;4.90;;;4.60;;
7025;SDS011;3554;42.132;24.786;2023-03-23T13:01:18;5.40;;;5.10;;
7025;SDS011;3554;42.132;24.786;2023-03-23T13:03:49;6.63;;;4.83;;
7025;SDS011;3554;42.132;24.786;2023-03-23T13:06:23;4.73;;;4.33;;
7025;SDS011;3554;42.132;24.786;2023-03-23T13:08:57;3.33;;;3.23;;
7025;SDS011;3554;42.132;24.786;2023-03-23T13:11:28;4.23;;;4.03;;
7025;SDS011;3554;42.132;24.786;2023-03-23T13:14:01;4.47;;;4.17;;
7025;SDS011;3554;42.132;24.786;2023-03-23T13:16:38;3.83;;;3.63;;
7025;SDS011;3554;42.132;24.786;2023-03-23T13:19:11;4.30;;;4.00;;
7025;SDS011;3554;42.132;24.786;2023-03-23T13:21:46;3.60;;;3.40;;
7025;SDS011;3554;42.132;24.786;2023-03-23T13:24:23;5.17;;;3.33;;
7025;SDS011;3554;42.132;24.786;2023-03-23T13:26:52;3.40;;;3.20;;
7025;SDS011;3554;42.132;24.786;2023-03-23T13:29:22;3.67;;;3.47;;
7025;SDS011;3554;42.132;24.786;2023-03-23T13:31:52;3.87;;;3.57;;
7025;SDS011;3554;42.132;24.786;2023-03-23T13:34:32;3.33;;;3.13;;
7025;SDS011;3554;42.132;24.786;2023-03-23T13:36:59;3.20;;;3.00;;
7025;SDS011;3554;42.132;24.786;2023-03-23T13:39:30;3.97;;;3.67;;
7025;SDS011;3554;42.132;24.786;2023-03-23T13:42:03;3.73;;;3.53;;
7025;SDS011;3554;42.132;24.786;2023-03-23T13:44:56;3.13;;;3.00;;
7025;SDS011;3554;42.132;24.786;2023-03-23T13:47:36;2.87;;;2.73;;
7025;SDS011;3554;42.132;24.786;2023-03-23T13:50:09;3.03;;;2.93;;
7025;SDS011;3554;42.132;24.786;2023-03-23T13:52:38;3.53;;;3.33;;
7025;SDS011;3554;42.132;24.786;2023-03-23T13:58:11;4.60;;;3.50;;
7025;SDS011;3554;42.132;24.786;2023-03-23T14:01:00;4.17;;;3.97;;
7025;SDS011;3554;42.132;24.786;2023-03-23T14:03:33;4.03;;;3.73;;
7025;SDS011;3554;42.132;24.786;2023-03-23T14:06:04;3.80;;;3.43;;
7025;SDS011;3554;42.132;24.786;2023-03-23T14:08:42;3.70;;;3.40;;
7025;SDS011;3554;42.132;24.786;2023-03-23T14:11:11;3.57;;;3.40;;
7025;SDS011;3554;42.132;24.786;2023-03-23T14:13:42;3.93;;;3.70;;
7025;SDS011;3554;42.132;24.786;2023-03-23T14:16:19;3.17;;;2.97;;
7025;SDS011;3554;42.132;24.786;2023-03-23T14:18:51;3.87;;;3.40;;
7025;SDS011;3554;42.132;24.786;2023-03-23T14:24:03;3.63;;;3.33;;
7025;SDS011;3554;42.132;24.786;2023-03-23T14:26:35;3.40;;;3.20;;
7025;SDS011;3554;42.132;24.786;2023-03-23T14:29:03;3.33;;;3.13;;
7025;SDS011;3554;42.132;24.786;2023-03-23T14:31:32;4.13;;;3.27;;
7025;SDS011;3554;42.132;24.786;2023-03-23T14:34:01;3.50;;;3.30;;
7025;SDS011;3554;42.132;24.786;2023-03-23T14:36:34;3.17;;;2.97;;
7025;SDS011;3554;42.132;24.786;2023-03-23T14:39:04;4.00;;;3.80;;
7025;SDS011;3554;42.132;24.786;2023-03-23T14:41:33;4.43;;;2.73;;
7025;SDS011;3554;42.132;24.786;2023-03-23T14:44:02;3.73;;;3.40;;
7025;SDS011;3554;42.132;24.786;2023-03-23T14:46:33;3.47;;;3.27;;
7025;SDS011;3554;42.132;24.786;2023-03-23T14:49:01;4.57;;;4.30;;
7025;SDS011;3554;42.132;24.786;2023-03-23T14:51:29;4.43;;;4.13;;
7025;SDS011;3554;42.132;24.786;2023-03-23T14:53:58;4.20;;;3.93;;
7025;SDS011;3554;42.132;24.786;2023-03-23T14:56:31;4.20;;;4.00;;
7025;SDS011;3554;42.132;24.786;2023-03-23T14:59:03;4.00;;;3.80;;
7025;SDS011;3554;42.132;24.786;2023-03-23T15:01:35;3.60;;;3.40;;
7025;SDS011;3554;42.132;24.786;2023-03-23T15:04:04;3.37;;;3.20;;
7025;SDS011;3554;42.132;24.786;2023-03-23T15:06:34;3.40;;;3.20;;
7025;SDS011;3554;42.132;24.786;2023-03-23T15:09:04;3.13;;;2.93;;
7025;SDS011;3554;42.132;24.786;2023-03-23T15:11:34;3.70;;;3.40;;
7025;SDS011;3554;42.132;24.786;2023-03-23T15:14:07;3.20;;;3.03;;
7025;SDS011;3554;42.132;24.786;2023-03-23T15:16:44;3.57;;;3.37;;